This is the latest recevied weather packets stored in our database for station/object WW1TA. If no packets are shown the sender has not sent any weather packets the latest 10 day(s).
| Time | Temp. | Humidity | Pressure | Rain* | Wind** | Luminosity | Snow |
|---|---|---|---|---|---|---|---|
| 1777479908 | 22.78° C | 83% | 1016.6 hPa | 0 mm | - | 242 W/m² | - |
| 1777479303 | 22.78° C | 84% | 1016.7 hPa | 0 mm | - | 197 W/m² | - |
| 1777476572 | 22.22° C | 86% | 1016.7 hPa | 0 mm | - | 225 W/m² | - |
| 1777475963 | 22.22° C | 86% | 1016.5 hPa | 0 mm | - | 276 W/m² | - |
| 1777475356 | 21.67° C | 89% | 1016.5 hPa | 0 mm | - | 283 W/m² | - |
| 1777474748 | 21.67° C | 92% | 1016.5 hPa | 0 mm | - | 245 W/m² | - |
| 1777474444 | 21.11° C | 93% | 1016.5 hPa | 0 mm | - | 208 W/m² | - |
| 1777473535 | 20.56° C | 94% | 1017.2 hPa | 0 mm | - | 150 W/m² | - |
| 1777472624 | 20° C | 95% | 1017.5 hPa | 0 mm | - | 181 W/m² | - |
| 1777472321 | 20° C | 96% | 1017.4 hPa | 0 mm | - | 177 W/m² | - |
| 1777471713 | 20° C | 98% | 1017.5 hPa | 0 mm | - | 245 W/m² | - |
| 1777471107 | 19.44° C | 98% | 1018.1 hPa | 0 mm | - | 182 W/m² | - |
| 1777470804 | 19.44° C | 99% | 1018.2 hPa | 0 mm | - | 160 W/m² | - |
| 1777469893 | 19.44° C | 99% | 1018.4 hPa | 2.29 mm | - | 100 W/m² | - |
| 1777469283 | 18.89° C | 99% | 1018.8 hPa | 0 mm | - | 46 W/m² | - |
| 1777468979 | 19.44° C | 99% | 1018.8 hPa | 0.51 mm | - | 77 W/m² | - |
| 1777468674 | 19.44° C | 99% | 1018.8 hPa | 1.27 mm | - | 119 W/m² | - |
| 1777468372 | 19.44° C | 99% | 1018.8 hPa | 0.51 mm | - | 65 W/m² | - |
| 1777468068 | 19.44° C | 99% | 1019 hPa | 0 mm | - | 43 W/m² | - |
| 1777467764 | 19.44° C | 99% | 1019 hPa | 0.51 mm | - | 51 W/m² | - |
| 1777467459 | 19.44° C | 99% | 1018.8 hPa | 0.51 mm | - | 55 W/m² | - |
| 1777466246 | 19.44° C | 99% | 1018.9 hPa | 0 mm | - | 18 W/m² | - |
| 1777465942 | 18.89° C | 99% | 1018.8 hPa | 0.51 mm | - | 20 W/m² | - |
| 1777465638 | 18.89° C | 99% | 1018.8 hPa | 0.51 mm | - | 24 W/m² | - |
| 1777465334 | 18.89° C | 99% | 1018.8 hPa | 1.27 mm | - | 24 W/m² | - |
* Rain latest hour (hover to see other rain measurements)
** Current wind speed in m/s (hover to see current wind gust speed)